sensor_id;sensor_type;location;lat;lon;timestamp;P1;durP1;ratioP1;P2;durP2;ratioP2
7253;SDS011;4060;49.186;9.226;2023-05-23T00:01:01;12.00;;;10.95;;
7253;SDS011;4060;49.186;9.226;2023-05-23T00:03:32;13.02;;;11.82;;
7253;SDS011;4060;49.186;9.226;2023-05-23T00:06:04;12.65;;;11.50;;
7253;SDS011;4060;49.186;9.226;2023-05-23T00:08:34;12.45;;;11.25;;
7253;SDS011;4060;49.186;9.226;2023-05-23T00:11:03;12.90;;;11.68;;
7253;SDS011;4060;49.186;9.226;2023-05-23T00:13:32;13.10;;;11.93;;
7253;SDS011;4060;49.186;9.226;2023-05-23T00:16:02;12.05;;;10.95;;
7253;SDS011;4060;49.186;9.226;2023-05-23T00:18:35;13.38;;;12.23;;
7253;SDS011;4060;49.186;9.226;2023-05-23T00:21:07;12.60;;;11.52;;
7253;SDS011;4060;49.186;9.226;2023-05-23T00:23:36;13.60;;;12.35;;
7253;SDS011;4060;49.186;9.226;2023-05-23T00:26:07;12.48;;;11.48;;
7253;SDS011;4060;49.186;9.226;2023-05-23T00:28:36;12.77;;;11.68;;
7253;SDS011;4060;49.186;9.226;2023-05-23T00:31:06;12.82;;;11.68;;
7253;SDS011;4060;49.186;9.226;2023-05-23T00:33:35;13.02;;;11.93;;
7253;SDS011;4060;49.186;9.226;2023-05-23T00:36:06;13.88;;;12.68;;
7253;SDS011;4060;49.186;9.226;2023-05-23T00:38:35;13.10;;;11.90;;
7253;SDS011;4060;49.186;9.226;2023-05-23T00:41:04;12.90;;;11.80;;
7253;SDS011;4060;49.186;9.226;2023-05-23T00:43:33;13.88;;;12.68;;
7253;SDS011;4060;49.186;9.226;2023-05-23T00:46:03;13.23;;;12.13;;
7253;SDS011;4060;49.186;9.226;2023-05-23T00:48:33;14.32;;;13.02;;
7253;SDS011;4060;49.186;9.226;2023-05-23T00:51:03;14.00;;;12.80;;
7253;SDS011;4060;49.186;9.226;2023-05-23T00:53:34;14.27;;;12.98;;
7253;SDS011;4060;49.186;9.226;2023-05-23T00:56:03;13.77;;;12.48;;
7253;SDS011;4060;49.186;9.226;2023-05-23T00:58:33;13.32;;;12.23;;
7253;SDS011;4060;49.186;9.226;2023-05-23T01:01:02;14.40;;;13.10;;
7253;SDS011;4060;49.186;9.226;2023-05-23T01:03:31;13.90;;;12.60;;
7253;SDS011;4060;49.186;9.226;2023-05-23T01:06:01;14.35;;;13.13;;
7253;SDS011;4060;49.186;9.226;2023-05-23T01:08:33;13.93;;;12.65;;
7253;SDS011;4060;49.186;9.226;2023-05-23T01:11:14;14.50;;;13.10;;
7253;SDS011;4060;49.186;9.226;2023-05-23T01:13:53;15.05;;;13.65;;
7253;SDS011;4060;49.186;9.226;2023-05-23T01:16:29;14.70;;;13.40;;
7253;SDS011;4060;49.186;9.226;2023-05-23T01:19:05;14.55;;;13.23;;
7253;SDS011;4060;49.186;9.226;2023-05-23T01:21:46;14.88;;;13.50;;
7253;SDS011;4060;49.186;9.226;2023-05-23T01:24:34;15.00;;;13.60;;
7253;SDS011;4060;49.186;9.226;2023-05-23T01:27:13;14.63;;;13.48;;
7253;SDS011;4060;49.186;9.226;2023-05-23T01:29:53;15.35;;;13.95;;
7253;SDS011;4060;49.186;9.226;2023-05-23T01:32:26;14.45;;;13.15;;
7253;SDS011;4060;49.186;9.226;2023-05-23T01:34:57;15.10;;;13.55;;
7253;SDS011;4060;49.186;9.226;2023-05-23T01:37:27;15.52;;;14.02;;
7253;SDS011;4060;49.186;9.226;2023-05-23T01:39:56;15.57;;;14.15;;
7253;SDS011;4060;49.186;9.226;2023-05-23T01:42:26;15.90;;;14.40;;
7253;SDS011;4060;49.186;9.226;2023-05-23T01:44:58;15.88;;;14.38;;
7253;SDS011;4060;49.186;9.226;2023-05-23T01:47:27;16.42;;;14.77;;
7253;SDS011;4060;49.186;9.226;2023-05-23T01:49:57;15.45;;;13.98;;
7253;SDS011;4060;49.186;9.226;2023-05-23T01:52:28;16.35;;;14.75;;
7253;SDS011;4060;49.186;9.226;2023-05-23T01:54:57;16.73;;;15.13;;
7253;SDS011;4060;49.186;9.226;2023-05-23T01:57:27;16.42;;;14.77;;
7253;SDS011;4060;49.186;9.226;2023-05-23T01:59:59;15.75;;;14.25;;
7253;SDS011;4060;49.186;9.226;2023-05-23T02:02:28;16.30;;;14.60;;
7253;SDS011;4060;49.186;9.226;2023-05-23T02:04:57;17.05;;;15.45;;
7253;SDS011;4060;49.186;9.226;2023-05-23T02:07:27;18.00;;;16.17;;
7253;SDS011;4060;49.186;9.226;2023-05-23T02:09:56;16.40;;;14.80;;
7253;SDS011;4060;49.186;9.226;2023-05-23T02:12:26;17.63;;;15.93;;
7253;SDS011;4060;49.186;9.226;2023-05-23T02:14:55;16.80;;;15.10;;
7253;SDS011;4060;49.186;9.226;2023-05-23T02:17:26;16.75;;;15.15;;
7253;SDS011;4060;49.186;9.226;2023-05-23T02:19:56;17.10;;;15.48;;
7253;SDS011;4060;49.186;9.226;2023-05-23T02:22:25;17.98;;;16.27;;
7253;SDS011;4060;49.186;9.226;2023-05-23T02:24:55;17.60;;;15.90;;
7253;SDS011;4060;49.186;9.226;2023-05-23T02:27:24;18.40;;;16.52;;
7253;SDS011;4060;49.186;9.226;2023-05-23T02:29:53;18.58;;;16.67;;
7253;SDS011;4060;49.186;9.226;2023-05-23T02:32:22;18.58;;;16.80;;
7253;SDS011;4060;49.186;9.226;2023-05-23T02:34:54;20.00;;;18.00;;
7253;SDS011;4060;49.186;9.226;2023-05-23T02:37:24;18.45;;;16.73;;
7253;SDS011;4060;49.186;9.226;2023-05-23T02:39:54;19.05;;;17.08;;
7253;SDS011;4060;49.186;9.226;2023-05-23T02:42:23;19.77;;;17.67;;
7253;SDS011;4060;49.186;9.226;2023-05-23T02:44:53;19.63;;;17.63;;
7253;SDS011;4060;49.186;9.226;2023-05-23T02:47:22;21.00;;;18.88;;
7253;SDS011;4060;49.186;9.226;2023-05-23T02:49:51;20.05;;;17.88;;
7253;SDS011;4060;49.186;9.226;2023-05-23T02:52:22;19.98;;;17.92;;
7253;SDS011;4060;49.186;9.226;2023-05-23T02:54:52;21.25;;;19.08;;
7253;SDS011;4060;49.186;9.226;2023-05-23T02:57:21;20.75;;;18.65;;
7253;SDS011;4060;49.186;9.226;2023-05-23T02:59:50;20.95;;;18.90;;
7253;SDS011;4060;49.186;9.226;2023-05-23T03:02:19;20.77;;;18.60;;
7253;SDS011;4060;49.186;9.226;2023-05-23T03:04:49;21.80;;;19.48;;
7253;SDS011;4060;49.186;9.226;2023-05-23T03:07:21;21.17;;;18.95;;
7253;SDS011;4060;49.186;9.226;2023-05-23T03:09:51;21.20;;;19.00;;
7253;SDS011;4060;49.186;9.226;2023-05-23T03:12:20;21.73;;;19.35;;
7253;SDS011;4060;49.186;9.226;2023-05-23T03:14:49;22.70;;;20.40;;
7253;SDS011;4060;49.186;9.226;2023-05-23T03:17:18;22.70;;;20.35;;
7253;SDS011;4060;49.186;9.226;2023-05-23T03:19:47;23.60;;;21.10;;
7253;SDS011;4060;49.186;9.226;2023-05-23T03:22:16;21.92;;;19.77;;
7253;SDS011;4060;49.186;9.226;2023-05-23T03:24:46;22.98;;;20.58;;
7253;SDS011;4060;49.186;9.226;2023-05-23T03:27:15;22.73;;;20.40;;
7253;SDS011;4060;49.186;9.226;2023-05-23T03:29:45;22.10;;;19.83;;
7253;SDS011;4060;49.186;9.226;2023-05-23T03:32:14;21.95;;;19.75;;
7253;SDS011;4060;49.186;9.226;2023-05-23T03:34:43;21.80;;;19.60;;
7253;SDS011;4060;49.186;9.226;2023-05-23T03:37:12;23.52;;;20.98;;
7253;SDS011;4060;49.186;9.226;2023-05-23T03:39:42;23.55;;;21.23;;
7253;SDS011;4060;49.186;9.226;2023-05-23T03:42:12;22.48;;;20.17;;
7253;SDS011;4060;49.186;9.226;2023-05-23T03:44:41;23.00;;;20.65;;
7253;SDS011;4060;49.186;9.226;2023-05-23T03:47:10;23.35;;;21.05;;
7253;SDS011;4060;49.186;9.226;2023-05-23T03:49:39;22.23;;;20.00;;
7253;SDS011;4060;49.186;9.226;2023-05-23T03:52:10;22.27;;;19.98;;
7253;SDS011;4060;49.186;9.226;2023-05-23T03:54:39;22.73;;;20.52;;
7253;SDS011;4060;49.186;9.226;2023-05-23T03:57:08;21.48;;;19.30;;
7253;SDS011;4060;49.186;9.226;2023-05-23T03:59:39;23.00;;;20.80;;
7253;SDS011;4060;49.186;9.226;2023-05-23T04:02:09;21.95;;;19.77;;
7253;SDS011;4060;49.186;9.226;2023-05-23T04:04:38;22.77;;;20.45;;
7253;SDS011;4060;49.186;9.226;2023-05-23T04:07:08;22.05;;;19.85;;
7253;SDS011;4060;49.186;9.226;2023-05-23T04:09:38;20.95;;;18.83;;
7253;SDS011;4060;49.186;9.226;2023-05-23T04:12:07;23.83;;;21.33;;
7253;SDS011;4060;49.186;9.226;2023-05-23T04:14:37;23.77;;;21.17;;
7253;SDS011;4060;49.186;9.226;2023-05-23T04:17:08;22.23;;;19.92;;
7253;SDS011;4060;49.186;9.226;2023-05-23T04:19:37;23.58;;;21.20;;
7253;SDS011;4060;49.186;9.226;2023-05-23T04:22:06;23.02;;;20.67;;
7253;SDS011;4060;49.186;9.226;2023-05-23T04:24:36;23.20;;;20.80;;
7253;SDS011;4060;49.186;9.226;2023-05-23T04:27:05;24.75;;;22.25;;
7253;SDS011;4060;49.186;9.226;2023-05-23T04:29:35;24.05;;;21.52;;
7253;SDS011;4060;49.186;9.226;2023-05-23T04:32:06;23.20;;;20.80;;
7253;SDS011;4060;49.186;9.226;2023-05-23T04:34:36;23.73;;;21.45;;
7253;SDS011;4060;49.186;9.226;2023-05-23T04:37:06;21.92;;;19.75;;
7253;SDS011;4060;49.186;9.226;2023-05-23T04:39:36;22.55;;;20.30;;
7253;SDS011;4060;49.186;9.226;2023-05-23T04:42:05;23.05;;;20.75;;
7253;SDS011;4060;49.186;9.226;2023-05-23T04:44:35;21.85;;;19.73;;
7253;SDS011;4060;49.186;9.226;2023-05-23T04:47:06;22.95;;;20.58;;
7253;SDS011;4060;49.186;9.226;2023-05-23T04:49:36;22.98;;;20.55;;
7253;SDS011;4060;49.186;9.226;2023-05-23T04:52:07;23.55;;;21.25;;
7253;SDS011;4060;49.186;9.226;2023-05-23T04:54:36;22.08;;;19.88;;
7253;SDS011;4060;49.186;9.226;2023-05-23T04:57:10;22.70;;;20.10;;
7253;SDS011;4060;49.186;9.226;2023-05-23T04:59:39;22.23;;;19.98;;
7253;SDS011;4060;49.186;9.226;2023-05-23T05:02:11;22.80;;;20.50;;
7253;SDS011;4060;49.186;9.226;2023-05-23T05:04:40;21.70;;;19.50;;
7253;SDS011;4060;49.186;9.226;2023-05-23T05:07:10;21.92;;;19.73;;
7253;SDS011;4060;49.186;9.226;2023-05-23T05:09:39;20.92;;;18.83;;
7253;SDS011;4060;49.186;9.226;2023-05-23T05:12:08;22.73;;;20.52;;
7253;SDS011;4060;49.186;9.226;2023-05-23T05:14:38;22.45;;;20.17;;
7253;SDS011;4060;49.186;9.226;2023-05-23T05:17:07;22.02;;;19.85;;
7253;SDS011;4060;49.186;9.226;2023-05-23T05:19:38;21.48;;;19.45;;
7253;SDS011;4060;49.186;9.226;2023-05-23T05:22:07;20.88;;;18.92;;
7253;SDS011;4060;49.186;9.226;2023-05-23T05:24:36;20.23;;;18.33;;
7253;SDS011;4060;49.186;9.226;2023-05-23T05:27:06;21.95;;;19.80;;
7253;SDS011;4060;49.186;9.226;2023-05-23T05:29:36;22.63;;;20.42;;
7253;SDS011;4060;49.186;9.226;2023-05-23T05:32:05;22.55;;;20.42;;
7253;SDS011;4060;49.186;9.226;2023-05-23T05:34:35;22.67;;;20.58;;
7253;SDS011;4060;49.186;9.226;2023-05-23T05:37:07;21.77;;;19.73;;
7253;SDS011;4060;49.186;9.226;2023-05-23T05:39:39;21.35;;;19.27;;
7253;SDS011;4060;49.186;9.226;2023-05-23T05:42:08;21.67;;;19.67;;
7253;SDS011;4060;49.186;9.226;2023-05-23T05:44:37;21.98;;;19.77;;
7253;SDS011;4060;49.186;9.226;2023-05-23T05:47:06;22.15;;;19.98;;
7253;SDS011;4060;49.186;9.226;2023-05-23T05:49:35;21.35;;;19.35;;
7253;SDS011;4060;49.186;9.226;2023-05-23T05:52:07;20.98;;;19.02;;
7253;SDS011;4060;49.186;9.226;2023-05-23T05:54:36;20.67;;;18.85;;
7253;SDS011;4060;49.186;9.226;2023-05-23T05:57:05;18.85;;;17.23;;
7253;SDS011;4060;49.186;9.226;2023-05-23T05:59:33;19.23;;;17.40;;
7253;SDS011;4060;49.186;9.226;2023-05-23T06:02:02;18.80;;;17.02;;
7253;SDS011;4060;49.186;9.226;2023-05-23T06:04:31;19.48;;;17.65;;
7253;SDS011;4060;49.186;9.226;2023-05-23T06:07:01;18.27;;;16.58;;
7253;SDS011;4060;49.186;9.226;2023-05-23T06:09:32;18.10;;;16.55;;
7253;SDS011;4060;49.186;9.226;2023-05-23T06:12:01;17.42;;;15.80;;
7253;SDS011;4060;49.186;9.226;2023-05-23T06:14:32;17.55;;;15.93;;
7253;SDS011;4060;49.186;9.226;2023-05-23T06:17:02;17.70;;;16.23;;
7253;SDS011;4060;49.186;9.226;2023-05-23T06:19:33;17.88;;;16.27;;
7253;SDS011;4060;49.186;9.226;2023-05-23T06:22:03;17.90;;;16.30;;
7253;SDS011;4060;49.186;9.226;2023-05-23T06:24:34;17.50;;;15.80;;
7253;SDS011;4060;49.186;9.226;2023-05-23T06:27:04;17.85;;;16.25;;
7253;SDS011;4060;49.186;9.226;2023-05-23T06:29:33;17.15;;;15.55;;
7253;SDS011;4060;49.186;9.226;2023-05-23T06:32:02;16.42;;;15.13;;
7253;SDS011;4060;49.186;9.226;2023-05-23T06:34:31;17.88;;;16.38;;
7253;SDS011;4060;49.186;9.226;2023-05-23T06:37:00;17.45;;;15.82;;
7253;SDS011;4060;49.186;9.226;2023-05-23T06:39:29;17.73;;;16.15;;
7253;SDS011;4060;49.186;9.226;2023-05-23T06:42:00;16.88;;;15.45;;
7253;SDS011;4060;49.186;9.226;2023-05-23T06:44:30;16.40;;;15.00;;
7253;SDS011;4060;49.186;9.226;2023-05-23T06:46:59;17.95;;;16.42;;
7253;SDS011;4060;49.186;9.226;2023-05-23T06:49:28;17.67;;;16.08;;
7253;SDS011;4060;49.186;9.226;2023-05-23T06:51:57;16.90;;;15.40;;
7253;SDS011;4060;49.186;9.226;2023-05-23T06:54:26;15.52;;;14.23;;
7253;SDS011;4060;49.186;9.226;2023-05-23T06:56:56;15.38;;;13.98;;
7253;SDS011;4060;49.186;9.226;2023-05-23T06:59:27;15.27;;;13.98;;
7253;SDS011;4060;49.186;9.226;2023-05-23T07:01:56;14.63;;;13.32;;
7253;SDS011;4060;49.186;9.226;2023-05-23T07:04:25;14.75;;;13.45;;
7253;SDS011;4060;49.186;9.226;2023-05-23T07:06:54;14.10;;;12.80;;
7253;SDS011;4060;49.186;9.226;2023-05-23T07:09:23;13.85;;;12.65;;
7253;SDS011;4060;49.186;9.226;2023-05-23T07:11:53;13.98;;;12.77;;
7253;SDS011;4060;49.186;9.226;2023-05-23T07:14:22;14.18;;;12.98;;
7253;SDS011;4060;49.186;9.226;2023-05-23T07:16:53;18.02;;;16.33;;
7253;SDS011;4060;49.186;9.226;2023-05-23T07:19:22;15.80;;;14.30;;
7253;SDS011;4060;49.186;9.226;2023-05-23T07:21:52;13.88;;;12.45;;
7253;SDS011;4060;49.186;9.226;2023-05-23T07:24:21;13.88;;;12.60;;
7253;SDS011;4060;49.186;9.226;2023-05-23T07:26:50;12.35;;;11.23;;
7253;SDS011;4060;49.186;9.226;2023-05-23T07:29:20;12.35;;;11.10;;
7253;SDS011;4060;49.186;9.226;2023-05-23T07:31:49;11.32;;;10.32;;
7253;SDS011;4060;49.186;9.226;2023-05-23T07:34:20;11.77;;;10.77;;
7253;SDS011;4060;49.186;9.226;2023-05-23T07:36:50;11.43;;;10.23;;
7253;SDS011;4060;49.186;9.226;2023-05-23T07:39:19;11.23;;;10.23;;
7253;SDS011;4060;49.186;9.226;2023-05-23T07:41:49;11.57;;;10.48;;
7253;SDS011;4060;49.186;9.226;2023-05-23T07:44:19;11.05;;;10.13;;
7253;SDS011;4060;49.186;9.226;2023-05-23T07:46:48;10.80;;;9.90;;
7253;SDS011;4060;49.186;9.226;2023-05-23T07:49:17;11.23;;;10.23;;
7253;SDS011;4060;49.186;9.226;2023-05-23T07:51:48;10.25;;;9.45;;
7253;SDS011;4060;49.186;9.226;2023-05-23T07:54:17;10.32;;;9.43;;
7253;SDS011;4060;49.186;9.226;2023-05-23T07:56:47;10.30;;;9.48;;
7253;SDS011;4060;49.186;9.226;2023-05-23T07:59:16;9.80;;;9.00;;
7253;SDS011;4060;49.186;9.226;2023-05-23T08:01:47;10.02;;;9.23;;
7253;SDS011;4060;49.186;9.226;2023-05-23T08:04:17;9.65;;;8.65;;
7253;SDS011;4060;49.186;9.226;2023-05-23T08:06:48;9.63;;;8.82;;
7253;SDS011;4060;49.186;9.226;2023-05-23T08:09:18;10.00;;;9.13;;
7253;SDS011;4060;49.186;9.226;2023-05-23T08:11:47;9.85;;;9.05;;
7253;SDS011;4060;49.186;9.226;2023-05-23T08:14:17;9.50;;;8.68;;
7253;SDS011;4060;49.186;9.226;2023-05-23T08:16:46;9.88;;;8.98;;
7253;SDS011;4060;49.186;9.226;2023-05-23T08:19:15;9.32;;;8.63;;
7253;SDS011;4060;49.186;9.226;2023-05-23T08:21:45;10.32;;;9.52;;
7253;SDS011;4060;49.186;9.226;2023-05-23T08:24:16;10.32;;;9.30;;
7253;SDS011;4060;49.186;9.226;2023-05-23T08:26:45;10.88;;;9.98;;
7253;SDS011;4060;49.186;9.226;2023-05-23T08:29:16;12.60;;;11.52;;
7253;SDS011;4060;49.186;9.226;2023-05-23T08:31:46;11.88;;;10.88;;
7253;SDS011;4060;49.186;9.226;2023-05-23T08:34:14;11.05;;;10.07;;
7253;SDS011;4060;49.186;9.226;2023-05-23T08:36:43;11.75;;;10.70;;
7253;SDS011;4060;49.186;9.226;2023-05-23T08:39:13;11.05;;;10.18;;
7253;SDS011;4060;49.186;9.226;2023-05-23T08:41:42;10.32;;;9.43;;
7253;SDS011;4060;49.186;9.226;2023-05-23T08:44:12;10.50;;;9.60;;
7253;SDS011;4060;49.186;9.226;2023-05-23T08:46:43;11.07;;;10.18;;
7253;SDS011;4060;49.186;9.226;2023-05-23T08:49:15;10.73;;;9.82;;
7253;SDS011;4060;49.186;9.226;2023-05-23T08:51:45;12.00;;;11.00;;
7253;SDS011;4060;49.186;9.226;2023-05-23T08:54:21;12.93;;;11.73;;
7253;SDS011;4060;49.186;9.226;2023-05-23T08:56:52;12.25;;;11.05;;
7253;SDS011;4060;49.186;9.226;2023-05-23T08:59:21;12.55;;;11.43;;
7253;SDS011;4060;49.186;9.226;2023-05-23T09:01:50;12.02;;;10.73;;
7253;SDS011;4060;49.186;9.226;2023-05-23T09:04:22;11.98;;;10.98;;
7253;SDS011;4060;49.186;9.226;2023-05-23T09:06:51;11.65;;;10.65;;
7253;SDS011;4060;49.186;9.226;2023-05-23T09:09:24;12.95;;;11.65;;
7253;SDS011;4060;49.186;9.226;2023-05-23T09:11:54;10.95;;;10.05;;
7253;SDS011;4060;49.186;9.226;2023-05-23T09:14:28;11.50;;;10.48;;
7253;SDS011;4060;49.186;9.226;2023-05-23T09:17:01;11.43;;;10.43;;
7253;SDS011;4060;49.186;9.226;2023-05-23T09:19:31;11.63;;;10.63;;
7253;SDS011;4060;49.186;9.226;2023-05-23T09:22:01;11.18;;;10.38;;
7253;SDS011;4060;49.186;9.226;2023-05-23T09:24:36;11.68;;;10.55;;
7253;SDS011;4060;49.186;9.226;2023-05-23T09:27:06;11.55;;;10.32;;
7253;SDS011;4060;49.186;9.226;2023-05-23T09:29:38;11.70;;;10.70;;
7253;SDS011;4060;49.186;9.226;2023-05-23T09:32:11;12.32;;;11.32;;
7253;SDS011;4060;49.186;9.226;2023-05-23T09:34:41;12.20;;;11.20;;
7253;SDS011;4060;49.186;9.226;2023-05-23T09:37:24;10.73;;;9.75;;
7253;SDS011;4060;49.186;9.226;2023-05-23T09:40:00;10.00;;;9.20;;
7253;SDS011;4060;49.186;9.226;2023-05-23T09:42:35;11.10;;;10.10;;
7253;SDS011;4060;49.186;9.226;2023-05-23T09:45:09;10.05;;;9.23;;
7253;SDS011;4060;49.186;9.226;2023-05-23T09:47:39;11.52;;;10.48;;
7253;SDS011;4060;49.186;9.226;2023-05-23T09:50:19;10.30;;;9.50;;
7253;SDS011;4060;49.186;9.226;2023-05-23T09:52:48;11.23;;;10.23;;
7253;SDS011;4060;49.186;9.226;2023-05-23T09:55:21;10.63;;;9.73;;
7253;SDS011;4060;49.186;9.226;2023-05-23T09:57:51;10.30;;;9.32;;
7253;SDS011;4060;49.186;9.226;2023-05-23T10:00:22;10.52;;;9.63;;
7253;SDS011;4060;49.186;9.226;2023-05-23T10:03:04;9.65;;;8.82;;
7253;SDS011;4060;49.186;9.226;2023-05-23T10:05:39;10.27;;;9.38;;
7253;SDS011;4060;49.186;9.226;2023-05-23T10:08:13;10.52;;;9.65;;
7253;SDS011;4060;49.186;9.226;2023-05-23T10:11:23;10.20;;;9.40;;
7253;SDS011;4060;49.186;9.226;2023-05-23T10:14:08;9.77;;;8.98;;
7253;SDS011;4060;49.186;9.226;2023-05-23T10:16:42;9.52;;;8.82;;
7253;SDS011;4060;49.186;9.226;2023-05-23T10:19:22;8.98;;;8.27;;
7253;SDS011;4060;49.186;9.226;2023-05-23T10:21:55;9.43;;;8.63;;
7253;SDS011;4060;49.186;9.226;2023-05-23T10:24:28;9.15;;;8.35;;
7253;SDS011;4060;49.186;9.226;2023-05-23T10:26:59;9.25;;;8.45;;
7253;SDS011;4060;49.186;9.226;2023-05-23T10:29:29;9.02;;;8.23;;
7253;SDS011;4060;49.186;9.226;2023-05-23T10:32:00;8.63;;;7.90;;
7253;SDS011;4060;49.186;9.226;2023-05-23T10:34:31;8.20;;;7.50;;
7253;SDS011;4060;49.186;9.226;2023-05-23T10:37:05;7.93;;;7.32;;
7253;SDS011;4060;49.186;9.226;2023-05-23T10:39:48;8.30;;;7.70;;
7253;SDS011;4060;49.186;9.226;2023-05-23T10:42:33;8.45;;;7.75;;
7253;SDS011;4060;49.186;9.226;2023-05-23T10:45:16;8.13;;;7.43;;
7253;SDS011;4060;49.186;9.226;2023-05-23T10:47:47;7.22;;;6.72;;
7253;SDS011;4060;49.186;9.226;2023-05-23T10:50:30;7.65;;;7.10;;
7253;SDS011;4060;49.186;9.226;2023-05-23T10:53:00;7.10;;;6.60;;
7253;SDS011;4060;49.186;9.226;2023-05-23T10:55:31;7.30;;;6.75;;
7253;SDS011;4060;49.186;9.226;2023-05-23T10:58:14;7.15;;;6.65;;
7253;SDS011;4060;49.186;9.226;2023-05-23T11:00:51;7.20;;;6.68;;
7253;SDS011;4060;49.186;9.226;2023-05-23T11:03:30;7.13;;;6.57;;
7253;SDS011;4060;49.186;9.226;2023-05-23T11:06:00;7.35;;;6.65;;
7253;SDS011;4060;49.186;9.226;2023-05-23T11:08:37;7.00;;;6.40;;
7253;SDS011;4060;49.186;9.226;2023-05-23T11:11:07;7.45;;;6.88;;
7253;SDS011;4060;49.186;9.226;2023-05-23T11:13:57;7.03;;;6.43;;
7253;SDS011;4060;49.186;9.226;2023-05-23T11:16:28;7.05;;;6.55;;
7253;SDS011;4060;49.186;9.226;2023-05-23T11:21:53;6.57;;;6.07;;
7253;SDS011;4060;49.186;9.226;2023-05-23T11:27:17;6.60;;;6.10;;
7253;SDS011;4060;49.186;9.226;2023-05-23T11:30:01;6.90;;;6.40;;
7253;SDS011;4060;49.186;9.226;2023-05-23T11:32:33;6.50;;;6.03;;
7253;SDS011;4060;49.186;9.226;2023-05-23T11:35:04;6.13;;;5.63;;
7253;SDS011;4060;49.186;9.226;2023-05-23T11:37:34;6.20;;;5.70;;
7253;SDS011;4060;49.186;9.226;2023-05-23T11:42:54;6.82;;;6.32;;
7253;SDS011;4060;49.186;9.226;2023-05-23T11:45:26;6.20;;;5.70;;
7253;SDS011;4060;49.186;9.226;2023-05-23T11:47:56;6.55;;;5.97;;
7253;SDS011;4060;49.186;9.226;2023-05-23T11:50:25;6.43;;;5.93;;
7253;SDS011;4060;49.186;9.226;2023-05-23T11:52:55;6.63;;;6.13;;
7253;SDS011;4060;49.186;9.226;2023-05-23T11:55:24;6.50;;;6.00;;
7253;SDS011;4060;49.186;9.226;2023-05-23T11:57:54;6.05;;;5.55;;
7253;SDS011;4060;49.186;9.226;2023-05-23T12:00:25;6.28;;;5.78;;
7253;SDS011;4060;49.186;9.226;2023-05-23T12:02:56;6.15;;;5.72;;
7253;SDS011;4060;49.186;9.226;2023-05-23T12:05:34;6.38;;;5.88;;
7253;SDS011;4060;49.186;9.226;2023-05-23T12:08:04;6.25;;;5.82;;
7253;SDS011;4060;49.186;9.226;2023-05-23T12:10:34;5.63;;;5.18;;
7253;SDS011;4060;49.186;9.226;2023-05-23T12:13:03;6.25;;;5.75;;
7253;SDS011;4060;49.186;9.226;2023-05-23T12:15:35;6.13;;;5.65;;
7253;SDS011;4060;49.186;9.226;2023-05-23T12:18:06;6.65;;;6.15;;
7253;SDS011;4060;49.186;9.226;2023-05-23T12:20:35;6.20;;;5.70;;
7253;SDS011;4060;49.186;9.226;2023-05-23T12:23:04;5.50;;;5.10;;
7253;SDS011;4060;49.186;9.226;2023-05-23T12:25:38;5.95;;;5.55;;
7253;SDS011;4060;49.186;9.226;2023-05-23T12:28:09;5.70;;;5.30;;
7253;SDS011;4060;49.186;9.226;2023-05-23T12:30:42;6.25;;;5.75;;
7253;SDS011;4060;49.186;9.226;2023-05-23T12:33:12;5.63;;;5.22;;
7253;SDS011;4060;49.186;9.226;2023-05-23T12:35:44;5.85;;;5.40;;
7253;SDS011;4060;49.186;9.226;2023-05-23T12:38:15;5.30;;;4.90;;
7253;SDS011;4060;49.186;9.226;2023-05-23T12:43:36;5.47;;;5.00;;
7253;SDS011;4060;49.186;9.226;2023-05-23T12:46:08;5.40;;;5.03;;
7253;SDS011;4060;49.186;9.226;2023-05-23T12:48:37;5.05;;;4.15;;
7253;SDS011;4060;49.186;9.226;2023-05-23T12:51:06;4.82;;;4.53;;
7253;SDS011;4060;49.186;9.226;2023-05-23T12:53:36;5.00;;;4.60;;
7253;SDS011;4060;49.186;9.226;2023-05-23T12:56:06;4.68;;;4.38;;
7253;SDS011;4060;49.186;9.226;2023-05-23T12:58:35;4.93;;;4.53;;
7253;SDS011;4060;49.186;9.226;2023-05-23T13:01:05;4.80;;;4.50;;
7253;SDS011;4060;49.186;9.226;2023-05-23T13:03:37;4.57;;;4.28;;
7253;SDS011;4060;49.186;9.226;2023-05-23T13:06:12;4.57;;;4.28;;
7253;SDS011;4060;49.186;9.226;2023-05-23T13:08:42;4.13;;;3.83;;
7253;SDS011;4060;49.186;9.226;2023-05-23T13:11:12;4.90;;;4.55;;
7253;SDS011;4060;49.186;9.226;2023-05-23T13:13:41;4.07;;;3.78;;
7253;SDS011;4060;49.186;9.226;2023-05-23T13:16:12;4.07;;;3.88;;
7253;SDS011;4060;49.186;9.226;2023-05-23T13:18:41;4.72;;;4.32;;
7253;SDS011;4060;49.186;9.226;2023-05-23T13:21:11;4.15;;;3.85;;
7253;SDS011;4060;49.186;9.226;2023-05-23T13:23:40;4.10;;;3.80;;
7253;SDS011;4060;49.186;9.226;2023-05-23T13:26:10;4.10;;;3.80;;
7253;SDS011;4060;49.186;9.226;2023-05-23T13:28:39;4.00;;;3.70;;
7253;SDS011;4060;49.186;9.226;2023-05-23T13:31:09;3.63;;;3.42;;
7253;SDS011;4060;49.186;9.226;2023-05-23T13:33:41;3.85;;;3.55;;
7253;SDS011;4060;49.186;9.226;2023-05-23T13:36:10;4.20;;;3.90;;
7253;SDS011;4060;49.186;9.226;2023-05-23T13:38:40;3.40;;;3.20;;
7253;SDS011;4060;49.186;9.226;2023-05-23T13:41:09;3.85;;;3.55;;
7253;SDS011;4060;49.186;9.226;2023-05-23T13:43:38;3.55;;;3.28;;
7253;SDS011;4060;49.186;9.226;2023-05-23T13:46:08;3.90;;;3.60;;
7253;SDS011;4060;49.186;9.226;2023-05-23T13:48:40;3.65;;;3.40;;
7253;SDS011;4060;49.186;9.226;2023-05-23T13:51:10;3.60;;;3.30;;
7253;SDS011;4060;49.186;9.226;2023-05-23T13:53:39;3.67;;;3.47;;
7253;SDS011;4060;49.186;9.226;2023-05-23T13:56:08;3.28;;;3.08;;
7253;SDS011;4060;49.186;9.226;2023-05-23T13:58:38;3.70;;;3.40;;
7253;SDS011;4060;49.186;9.226;2023-05-23T14:01:08;3.67;;;3.47;;
7253;SDS011;4060;49.186;9.226;2023-05-23T14:03:37;2.97;;;2.78;;
7253;SDS011;4060;49.186;9.226;2023-05-23T14:06:08;3.50;;;3.30;;
7253;SDS011;4060;49.186;9.226;2023-05-23T14:08:37;3.40;;;3.20;;
7253;SDS011;4060;49.186;9.226;2023-05-23T14:11:07;3.13;;;2.90;;
7253;SDS011;4060;49.186;9.226;2023-05-23T14:13:36;3.20;;;3.00;;
7253;SDS011;4060;49.186;9.226;2023-05-23T14:16:06;3.40;;;3.20;;
7253;SDS011;4060;49.186;9.226;2023-05-23T14:18:35;3.88;;;3.58;;
7253;SDS011;4060;49.186;9.226;2023-05-23T14:21:04;3.30;;;3.10;;
7253;SDS011;4060;49.186;9.226;2023-05-23T14:23:35;3.13;;;2.92;;
7253;SDS011;4060;49.186;9.226;2023-05-23T14:26:03;3.38;;;3.15;;
7253;SDS011;4060;49.186;9.226;2023-05-23T14:28:33;3.60;;;3.30;;
7253;SDS011;4060;49.186;9.226;2023-05-23T14:31:03;3.35;;;3.15;;
7253;SDS011;4060;49.186;9.226;2023-05-23T14:33:33;3.00;;;2.80;;
7253;SDS011;4060;49.186;9.226;2023-05-23T14:36:02;3.40;;;3.20;;
7253;SDS011;4060;49.186;9.226;2023-05-23T14:38:32;3.17;;;2.97;;
7253;SDS011;4060;49.186;9.226;2023-05-23T14:41:04;3.03;;;2.83;;
7253;SDS011;4060;49.186;9.226;2023-05-23T14:43:33;3.58;;;3.28;;
7253;SDS011;4060;49.186;9.226;2023-05-23T14:46:02;2.90;;;2.70;;
7253;SDS011;4060;49.186;9.226;2023-05-23T14:48:31;2.95;;;2.75;;
7253;SDS011;4060;49.186;9.226;2023-05-23T14:51:00;3.28;;;2.97;;
7253;SDS011;4060;49.186;9.226;2023-05-23T14:53:29;3.47;;;3.03;;
7253;SDS011;4060;49.186;9.226;2023-05-23T14:56:02;2.67;;;2.47;;
7253;SDS011;4060;49.186;9.226;2023-05-23T14:58:31;3.08;;;2.88;;
7253;SDS011;4060;49.186;9.226;2023-05-23T15:01:00;3.40;;;3.13;;
7253;SDS011;4060;49.186;9.226;2023-05-23T15:03:29;3.20;;;3.00;;
7253;SDS011;4060;49.186;9.226;2023-05-23T15:05:59;3.20;;;3.00;;
7253;SDS011;4060;49.186;9.226;2023-05-23T15:08:29;2.78;;;2.58;;
7253;SDS011;4060;49.186;9.226;2023-05-23T15:11:00;2.97;;;2.78;;
7253;SDS011;4060;49.186;9.226;2023-05-23T15:13:30;3.67;;;3.38;;
7253;SDS011;4060;49.186;9.226;2023-05-23T15:15:59;3.25;;;2.95;;
7253;SDS011;4060;49.186;9.226;2023-05-23T15:18:28;2.40;;;2.30;;
7253;SDS011;4060;49.186;9.226;2023-05-23T15:20:57;2.65;;;2.55;;
7253;SDS011;4060;49.186;9.226;2023-05-23T15:23:26;3.10;;;2.90;;
7253;SDS011;4060;49.186;9.226;2023-05-23T15:25:56;3.78;;;3.47;;
7253;SDS011;4060;49.186;9.226;2023-05-23T15:28:27;2.95;;;2.67;;
7253;SDS011;4060;49.186;9.226;2023-05-23T15:30:56;3.20;;;3.00;;